This is the latest recevied weather packets stored in our database for station/object N1TKS. If no packets are shown the sender has not sent any weather packets the latest 1 day(s).
| Time | Temp. | Humidity | Pressure | Rain* | Wind** | Luminosity | Snow |
|---|---|---|---|---|---|---|---|
| 1778006214 | 23.33° C | 57% | 1009.7 hPa | 0 mm | 0.89 m/s, 220° | - | - |
| 1778005614 | 23.33° C | 57% | 1009.7 hPa | 0 mm | 0.89 m/s, 152° | - | - |
| 1778005444 | 23.33° C | 56% | 1009.7 hPa | 0 mm | 0.89 m/s, 199° | - | - |
| 1778005386 | 23.33° C | 56% | 1009.7 hPa | 0 mm | 0.89 m/s, 199° | - | - |
| 1778005314 | 23.33° C | 56% | 1009.7 hPa | 0 mm | 0.89 m/s, 199° | - | - |
| 1778005014 | 23.33° C | 56% | 1009.6 hPa | 0 mm | 0.89 m/s, 186° | - | - |
| 1778003817 | 23.89° C | 54% | 1009.7 hPa | 0 mm | 0.89 m/s, 203° | - | - |
| 1778002913 | 24.44° C | 54% | 1009.8 hPa | 0 mm | 0.89 m/s, 180° | - | - |
| 1778002614 | 23.89° C | 55% | 1009.8 hPa | 0 mm | 0.45 m/s, 186° | - | - |
| 1778002314 | 23.89° C | 54% | 1009.8 hPa | 0 mm | 0.89 m/s, 196° | - | - |
| 1778002014 | 23.89° C | 53% | 1009.9 hPa | 0 mm | 0.89 m/s, 208° | - | - |
| 1778001774 | 24.44° C | 53% | 1009.9 hPa | 0 mm | 0.89 m/s, 205° | - | - |
| 1778001732 | 24.44° C | 53% | 1009.9 hPa | 0 mm | 0.89 m/s, 205° | - | - |
| 1778001114 | 24.44° C | 54% | 1010 hPa | 0 mm | 0.89 m/s, 82° | - | - |
| 1777999802 | 23.33° C | 57% | 1010.6 hPa | 0 mm | 0.89 m/s, 226° | - | - |
| 1777999795 | 22.78° C | 57% | 1010.7 hPa | 0 mm | 0.45 m/s, 215° | - | - |
| 1777999616 | 23.89° C | 54% | 1010.3 hPa | 0 mm | 0.45 m/s, 197° | - | - |
| 1777999014 | 23.89° C | 55% | 1010.4 hPa | 0 mm | 0.45 m/s, 203° | - | - |
| 1777998759 | 23.33° C | 57% | 1010.5 hPa | 0 mm | 0.45 m/s, 138° | - | - |
| 1777998714 | 23.33° C | 57% | 1010.5 hPa | 0 mm | 0.45 m/s, 138° | - | - |
| 1777998413 | 23.33° C | 57% | 1010.6 hPa | 0 mm | 0.89 m/s, 226° | - | - |
| 1777998114 | 22.78° C | 57% | 1010.7 hPa | 0 mm | 0.45 m/s, 215° | - | - |
| 1777997954 | 22.78° C | 56% | 1010.6 hPa | 0 mm | 0.89 m/s, 192° | - | - |
| 1777997881 | 22.78° C | 59% | 1011 hPa | 0 mm | 0.45 m/s, 79° | - | - |
| 1777997814 | 22.78° C | 56% | 1010.6 hPa | 0 mm | 0.89 m/s, 192° | - | - |
* Rain latest hour (hover to see other rain measurements)
** Current wind speed in m/s (hover to see current wind gust speed)